sensor_id;sensor_type;location;lat;lon;timestamp;temperature;humidity
41220;DHT22;26951;47.338;9.196;2023-07-30T00:01:53;16.00;74.00
41220;DHT22;26951;47.338;9.196;2023-07-30T00:04:38;16.00;73.00
41220;DHT22;26951;47.338;9.196;2023-07-30T00:07:22;16.00;72.80
41220;DHT22;26951;47.338;9.196;2023-07-30T00:10:06;15.90;73.70
41220;DHT22;26951;47.338;9.196;2023-07-30T00:12:51;15.90;73.80
41220;DHT22;26951;47.338;9.196;2023-07-30T00:15:35;15.90;74.60
41220;DHT22;26951;47.338;9.196;2023-07-30T00:18:19;15.90;75.20
41220;DHT22;26951;47.338;9.196;2023-07-30T00:21:03;15.90;75.40
41220;DHT22;26951;47.338;9.196;2023-07-30T00:23:47;15.90;75.90
41220;DHT22;26951;47.338;9.196;2023-07-30T00:26:32;15.90;76.60
41220;DHT22;26951;47.338;9.196;2023-07-30T00:29:16;15.90;76.40
41220;DHT22;26951;47.338;9.196;2023-07-30T00:32:00;15.90;76.70
41220;DHT22;26951;47.338;9.196;2023-07-30T00:34:44;15.90;77.70
41220;DHT22;26951;47.338;9.196;2023-07-30T00:37:28;15.90;78.10
41220;DHT22;26951;47.338;9.196;2023-07-30T00:40:13;15.90;78.50
41220;DHT22;26951;47.338;9.196;2023-07-30T00:42:56;15.90;78.10
41220;DHT22;26951;47.338;9.196;2023-07-30T00:45:43;15.90;77.80
41220;DHT22;26951;47.338;9.196;2023-07-30T00:48:28;16.00;78.80
41220;DHT22;26951;47.338;9.196;2023-07-30T00:51:13;16.00;78.70
41220;DHT22;26951;47.338;9.196;2023-07-30T00:53:59;15.90;78.70
41220;DHT22;26951;47.338;9.196;2023-07-30T00:56:50;16.00;78.80
41220;DHT22;26951;47.338;9.196;2023-07-30T00:59:35;16.00;79.10
41220;DHT22;26951;47.338;9.196;2023-07-30T01:02:21;16.00;79.40
41220;DHT22;26951;47.338;9.196;2023-07-30T01:05:05;16.00;79.50
41220;DHT22;26951;47.338;9.196;2023-07-30T01:07:50;16.00;80.00
41220;DHT22;26951;47.338;9.196;2023-07-30T01:10:35;16.00;79.90
41220;DHT22;26951;47.338;9.196;2023-07-30T01:13:19;16.00;79.50
41220;DHT22;26951;47.338;9.196;2023-07-30T01:16:04;16.00;79.80
41220;DHT22;26951;47.338;9.196;2023-07-30T01:18:48;16.10;79.80
41220;DHT22;26951;47.338;9.196;2023-07-30T01:21:37;16.10;80.40
41220;DHT22;26951;47.338;9.196;2023-07-30T01:24:21;16.10;79.30
41220;DHT22;26951;47.338;9.196;2023-07-30T01:27:08;16.10;79.40
41220;DHT22;26951;47.338;9.196;2023-07-30T01:30:06;16.10;79.40
41220;DHT22;26951;47.338;9.196;2023-07-30T01:32:53;16.10;79.30
41220;DHT22;26951;47.338;9.196;2023-07-30T01:35:38;16.10;79.20
41220;DHT22;26951;47.338;9.196;2023-07-30T01:38:22;16.10;78.90
41220;DHT22;26951;47.338;9.196;2023-07-30T01:41:08;16.20;79.30
41220;DHT22;26951;47.338;9.196;2023-07-30T01:43:52;16.20;79.40
41220;DHT22;26951;47.338;9.196;2023-07-30T01:46:36;16.20;80.10
41220;DHT22;26951;47.338;9.196;2023-07-30T01:49:20;16.20;80.30
41220;DHT22;26951;47.338;9.196;2023-07-30T01:52:04;16.20;80.60
41220;DHT22;26951;47.338;9.196;2023-07-30T01:54:48;16.20;81.30
41220;DHT22;26951;47.338;9.196;2023-07-30T01:57:33;16.20;81.40
41220;DHT22;26951;47.338;9.196;2023-07-30T02:00:17;16.20;81.10
41220;DHT22;26951;47.338;9.196;2023-07-30T02:03:01;16.30;81.20
41220;DHT22;26951;47.338;9.196;2023-07-30T02:05:45;16.30;81.20
41220;DHT22;26951;47.338;9.196;2023-07-30T02:08:30;16.30;81.20
41220;DHT22;26951;47.338;9.196;2023-07-30T02:11:14;16.30;80.80
41220;DHT22;26951;47.338;9.196;2023-07-30T02:13:58;16.30;80.40
41220;DHT22;26951;47.338;9.196;2023-07-30T02:16:42;16.30;80.50
41220;DHT22;26951;47.338;9.196;2023-07-30T02:19:27;16.30;80.50
41220;DHT22;26951;47.338;9.196;2023-07-30T02:22:11;16.30;80.40
41220;DHT22;26951;47.338;9.196;2023-07-30T02:24:55;16.30;80.80
41220;DHT22;26951;47.338;9.196;2023-07-30T02:27:41;16.40;80.40
41220;DHT22;26951;47.338;9.196;2023-07-30T02:30:25;16.40;80.30
41220;DHT22;26951;47.338;9.196;2023-07-30T02:33:09;16.40;80.20
41220;DHT22;26951;47.338;9.196;2023-07-30T02:35:53;16.40;80.30
41220;DHT22;26951;47.338;9.196;2023-07-30T02:38:37;16.40;80.20
41220;DHT22;26951;47.338;9.196;2023-07-30T02:41:21;16.40;80.50
41220;DHT22;26951;47.338;9.196;2023-07-30T02:44:05;16.40;80.30
41220;DHT22;26951;47.338;9.196;2023-07-30T02:46:50;16.40;80.30
41220;DHT22;26951;47.338;9.196;2023-07-30T02:49:34;16.40;79.90
41220;DHT22;26951;47.338;9.196;2023-07-30T02:52:18;16.40;79.90
41220;DHT22;26951;47.338;9.196;2023-07-30T02:55:02;16.40;80.00
41220;DHT22;26951;47.338;9.196;2023-07-30T02:57:47;16.40;79.90
41220;DHT22;26951;47.338;9.196;2023-07-30T03:00:31;16.40;79.80
41220;DHT22;26951;47.338;9.196;2023-07-30T03:03:16;16.40;79.60
41220;DHT22;26951;47.338;9.196;2023-07-30T03:06:00;16.40;80.00
41220;DHT22;26951;47.338;9.196;2023-07-30T03:08:44;16.40;80.00
41220;DHT22;26951;47.338;9.196;2023-07-30T03:11:28;16.40;80.50
41220;DHT22;26951;47.338;9.196;2023-07-30T03:14:12;16.40;80.20
41220;DHT22;26951;47.338;9.196;2023-07-30T03:16:57;16.40;79.60
41220;DHT22;26951;47.338;9.196;2023-07-30T03:19:41;16.40;79.80
41220;DHT22;26951;47.338;9.196;2023-07-30T03:22:25;16.40;79.30
41220;DHT22;26951;47.338;9.196;2023-07-30T03:25:09;16.40;79.00
41220;DHT22;26951;47.338;9.196;2023-07-30T03:27:53;16.40;78.80
41220;DHT22;26951;47.338;9.196;2023-07-30T03:30:37;16.40;78.70
41220;DHT22;26951;47.338;9.196;2023-07-30T03:33:21;16.40;78.90
41220;DHT22;26951;47.338;9.196;2023-07-30T03:36:05;16.40;79.00
41220;DHT22;26951;47.338;9.196;2023-07-30T03:38:49;16.40;79.30
41220;DHT22;26951;47.338;9.196;2023-07-30T03:41:33;16.40;79.40
41220;DHT22;26951;47.338;9.196;2023-07-30T03:44:19;16.40;79.00
41220;DHT22;26951;47.338;9.196;2023-07-30T03:47:03;16.40;79.20
41220;DHT22;26951;47.338;9.196;2023-07-30T03:49:47;16.40;79.90
41220;DHT22;26951;47.338;9.196;2023-07-30T03:52:31;16.30;80.00
41220;DHT22;26951;47.338;9.196;2023-07-30T03:55:15;16.30;79.80
41220;DHT22;26951;47.338;9.196;2023-07-30T03:58:00;16.30;80.30
41220;DHT22;26951;47.338;9.196;2023-07-30T04:00:44;16.30;80.30
41220;DHT22;26951;47.338;9.196;2023-07-30T04:03:28;16.30;80.00
41220;DHT22;26951;47.338;9.196;2023-07-30T04:06:12;16.30;80.20
41220;DHT22;26951;47.338;9.196;2023-07-30T04:08:56;16.30;80.10
41220;DHT22;26951;47.338;9.196;2023-07-30T04:11:40;16.30;79.80
41220;DHT22;26951;47.338;9.196;2023-07-30T04:14:24;16.30;80.10
41220;DHT22;26951;47.338;9.196;2023-07-30T04:17:08;16.30;80.20
41220;DHT22;26951;47.338;9.196;2023-07-30T04:19:53;16.30;80.60
41220;DHT22;26951;47.338;9.196;2023-07-30T04:22:37;16.30;80.80
41220;DHT22;26951;47.338;9.196;2023-07-30T04:25:21;16.30;80.80
41220;DHT22;26951;47.338;9.196;2023-07-30T04:28:05;16.40;81.40
41220;DHT22;26951;47.338;9.196;2023-07-30T04:30:49;16.40;81.90
41220;DHT22;26951;47.338;9.196;2023-07-30T04:33:33;16.40;82.00
41220;DHT22;26951;47.338;9.196;2023-07-30T04:36:17;16.40;82.30
41220;DHT22;26951;47.338;9.196;2023-07-30T04:39:02;16.40;82.80
41220;DHT22;26951;47.338;9.196;2023-07-30T04:41:45;16.40;82.90
41220;DHT22;26951;47.338;9.196;2023-07-30T04:44:30;16.40;82.60
41220;DHT22;26951;47.338;9.196;2023-07-30T04:47:14;16.40;82.30
41220;DHT22;26951;47.338;9.196;2023-07-30T04:49:58;16.50;82.00
41220;DHT22;26951;47.338;9.196;2023-07-30T04:52:42;16.50;82.10
41220;DHT22;26951;47.338;9.196;2023-07-30T04:55:26;16.50;82.10
41220;DHT22;26951;47.338;9.196;2023-07-30T04:58:10;16.50;82.30
41220;DHT22;26951;47.338;9.196;2023-07-30T05:00:55;16.50;82.50
41220;DHT22;26951;47.338;9.196;2023-07-30T05:03:39;16.50;82.20
41220;DHT22;26951;47.338;9.196;2023-07-30T05:06:23;16.60;83.30
41220;DHT22;26951;47.338;9.196;2023-07-30T05:09:07;16.60;83.10
41220;DHT22;26951;47.338;9.196;2023-07-30T05:11:52;16.60;83.50
41220;DHT22;26951;47.338;9.196;2023-07-30T05:14:36;16.60;83.60
41220;DHT22;26951;47.338;9.196;2023-07-30T05:17:20;16.60;83.20
41220;DHT22;26951;47.338;9.196;2023-07-30T05:20:05;16.70;83.00
41220;DHT22;26951;47.338;9.196;2023-07-30T05:22:50;16.60;82.90
41220;DHT22;26951;47.338;9.196;2023-07-30T05:25:34;16.70;82.90
41220;DHT22;26951;47.338;9.196;2023-07-30T05:28:18;16.70;83.10
41220;DHT22;26951;47.338;9.196;2023-07-30T05:31:02;16.70;83.30
41220;DHT22;26951;47.338;9.196;2023-07-30T05:33:46;16.70;83.50
41220;DHT22;26951;47.338;9.196;2023-07-30T05:36:31;16.70;83.50
41220;DHT22;26951;47.338;9.196;2023-07-30T05:39:15;16.80;83.90
41220;DHT22;26951;47.338;9.196;2023-07-30T05:41:59;16.70;83.30
41220;DHT22;26951;47.338;9.196;2023-07-30T05:44:43;16.70;82.80
41220;DHT22;26951;47.338;9.196;2023-07-30T05:47:27;16.80;82.90
41220;DHT22;26951;47.338;9.196;2023-07-30T05:50:11;16.80;82.80
41220;DHT22;26951;47.338;9.196;2023-07-30T05:52:55;16.80;82.30
41220;DHT22;26951;47.338;9.196;2023-07-30T05:55:39;16.90;82.60
41220;DHT22;26951;47.338;9.196;2023-07-30T05:58:23;16.90;82.80
41220;DHT22;26951;47.338;9.196;2023-07-30T06:01:07;17.00;83.00
41220;DHT22;26951;47.338;9.196;2023-07-30T06:03:51;17.00;82.90
41220;DHT22;26951;47.338;9.196;2023-07-30T06:06:36;17.10;84.30
41220;DHT22;26951;47.338;9.196;2023-07-30T06:09:20;17.20;86.60
41220;DHT22;26951;47.338;9.196;2023-07-30T06:12:04;17.40;89.00
41220;DHT22;26951;47.338;9.196;2023-07-30T06:14:49;17.50;90.50
41220;DHT22;26951;47.338;9.196;2023-07-30T06:17:33;17.80;91.10
41220;DHT22;26951;47.338;9.196;2023-07-30T06:20:17;18.00;89.20
41220;DHT22;26951;47.338;9.196;2023-07-30T06:23:01;18.20;88.40
41220;DHT22;26951;47.338;9.196;2023-07-30T06:25:46;18.40;85.20
41220;DHT22;26951;47.338;9.196;2023-07-30T06:28:30;18.70;88.20
41220;DHT22;26951;47.338;9.196;2023-07-30T06:31:14;19.00;88.00
41220;DHT22;26951;47.338;9.196;2023-07-30T06:33:58;19.30;84.30
41220;DHT22;26951;47.338;9.196;2023-07-30T06:36:42;19.70;82.90
41220;DHT22;26951;47.338;9.196;2023-07-30T06:39:26;20.00;78.60
41220;DHT22;26951;47.338;9.196;2023-07-30T06:42:10;20.20;75.80
41220;DHT22;26951;47.338;9.196;2023-07-30T06:44:54;20.30;67.40
41220;DHT22;26951;47.338;9.196;2023-07-30T06:47:39;20.40;67.10
41220;DHT22;26951;47.338;9.196;2023-07-30T06:50:23;20.50;66.90
41220;DHT22;26951;47.338;9.196;2023-07-30T06:53:07;20.60;66.00
41220;DHT22;26951;47.338;9.196;2023-07-30T06:55:51;20.80;62.80
41220;DHT22;26951;47.338;9.196;2023-07-30T06:58:35;20.90;65.40
41220;DHT22;26951;47.338;9.196;2023-07-30T07:01:19;21.00;63.30
41220;DHT22;26951;47.338;9.196;2023-07-30T07:04:03;21.00;61.30
41220;DHT22;26951;47.338;9.196;2023-07-30T07:06:48;21.00;60.00
41220;DHT22;26951;47.338;9.196;2023-07-30T07:09:32;20.90;60.70
41220;DHT22;26951;47.338;9.196;2023-07-30T07:12:16;20.90;60.50
41220;DHT22;26951;47.338;9.196;2023-07-30T07:15:00;20.90;59.80
41220;DHT22;26951;47.338;9.196;2023-07-30T07:17:45;20.90;60.20
41220;DHT22;26951;47.338;9.196;2023-07-30T07:20:29;20.90;60.80
41220;DHT22;26951;47.338;9.196;2023-07-30T07:23:13;20.90;61.10
41220;DHT22;26951;47.338;9.196;2023-07-30T07:25:58;20.90;62.20
41220;DHT22;26951;47.338;9.196;2023-07-30T07:28:42;20.80;61.80
41220;DHT22;26951;47.338;9.196;2023-07-30T07:31:26;20.80;59.90
41220;DHT22;26951;47.338;9.196;2023-07-30T07:34:11;20.70;60.20
41220;DHT22;26951;47.338;9.196;2023-07-30T07:36:55;20.60;58.80
41220;DHT22;26951;47.338;9.196;2023-07-30T07:39:39;20.40;58.60
41220;DHT22;26951;47.338;9.196;2023-07-30T07:42:24;20.30;60.50
41220;DHT22;26951;47.338;9.196;2023-07-30T07:45:08;20.20;59.90
41220;DHT22;26951;47.338;9.196;2023-07-30T07:47:53;20.10;60.90
41220;DHT22;26951;47.338;9.196;2023-07-30T07:50:37;19.90;60.40
41220;DHT22;26951;47.338;9.196;2023-07-30T07:53:21;19.80;60.40
41220;DHT22;26951;47.338;9.196;2023-07-30T07:56:05;19.70;61.90
41220;DHT22;26951;47.338;9.196;2023-07-30T07:58:49;19.60;62.70
41220;DHT22;26951;47.338;9.196;2023-07-30T08:01:33;19.50;60.80
41220;DHT22;26951;47.338;9.196;2023-07-30T08:04:17;19.40;62.00
41220;DHT22;26951;47.338;9.196;2023-07-30T08:07:02;19.30;63.10
41220;DHT22;26951;47.338;9.196;2023-07-30T08:09:47;19.30;62.90
41220;DHT22;26951;47.338;9.196;2023-07-30T08:12:32;19.20;64.20
41220;DHT22;26951;47.338;9.196;2023-07-30T08:15:17;19.20;64.00
41220;DHT22;26951;47.338;9.196;2023-07-30T08:18:01;19.10;63.60
41220;DHT22;26951;47.338;9.196;2023-07-30T08:20:45;19.10;65.80
41220;DHT22;26951;47.338;9.196;2023-07-30T08:23:29;19.10;67.30
41220;DHT22;26951;47.338;9.196;2023-07-30T08:26:13;19.20;67.50
41220;DHT22;26951;47.338;9.196;2023-07-30T08:28:58;19.30;67.50
41220;DHT22;26951;47.338;9.196;2023-07-30T08:31:42;19.40;68.40
41220;DHT22;26951;47.338;9.196;2023-07-30T08:34:26;19.40;68.70
41220;DHT22;26951;47.338;9.196;2023-07-30T08:37:10;19.50;69.80
41220;DHT22;26951;47.338;9.196;2023-07-30T08:39:54;19.70;69.90
41220;DHT22;26951;47.338;9.196;2023-07-30T08:42:38;19.80;68.50
41220;DHT22;26951;47.338;9.196;2023-07-30T08:45:22;20.00;65.20
41220;DHT22;26951;47.338;9.196;2023-07-30T08:48:07;20.00;65.70
41220;DHT22;26951;47.338;9.196;2023-07-30T08:50:51;20.10;63.90
41220;DHT22;26951;47.338;9.196;2023-07-30T08:53:36;20.10;62.50
41220;DHT22;26951;47.338;9.196;2023-07-30T08:56:20;20.10;61.80
41220;DHT22;26951;47.338;9.196;2023-07-30T08:59:05;20.10;61.90
41220;DHT22;26951;47.338;9.196;2023-07-30T09:01:54;20.00;60.80
41220;DHT22;26951;47.338;9.196;2023-07-30T09:04:40;20.00;62.00
41220;DHT22;26951;47.338;9.196;2023-07-30T09:07:25;20.00;61.30
41220;DHT22;26951;47.338;9.196;2023-07-30T09:10:09;19.90;61.90
41220;DHT22;26951;47.338;9.196;2023-07-30T09:12:57;20.00;62.80
41220;DHT22;26951;47.338;9.196;2023-07-30T09:15:48;20.10;64.00
41220;DHT22;26951;47.338;9.196;2023-07-30T09:18:39;20.20;65.90
41220;DHT22;26951;47.338;9.196;2023-07-30T09:21:31;20.40;63.60
41220;DHT22;26951;47.338;9.196;2023-07-30T09:24:21;20.40;61.20
41220;DHT22;26951;47.338;9.196;2023-07-30T09:27:05;20.50;64.00
41220;DHT22;26951;47.338;9.196;2023-07-30T09:29:51;20.70;61.00
41220;DHT22;26951;47.338;9.196;2023-07-30T09:32:35;20.80;61.10
41220;DHT22;26951;47.338;9.196;2023-07-30T09:35:20;20.90;60.40
41220;DHT22;26951;47.338;9.196;2023-07-30T09:38:04;20.90;59.00
41220;DHT22;26951;47.338;9.196;2023-07-30T09:40:49;21.00;59.70
41220;DHT22;26951;47.338;9.196;2023-07-30T09:43:34;21.00;58.50
41220;DHT22;26951;47.338;9.196;2023-07-30T09:46:19;21.00;59.00
41220;DHT22;26951;47.338;9.196;2023-07-30T09:49:03;21.00;60.20
41220;DHT22;26951;47.338;9.196;2023-07-30T09:51:49;21.00;60.10
41220;DHT22;26951;47.338;9.196;2023-07-30T09:54:36;20.90;59.40
41220;DHT22;26951;47.338;9.196;2023-07-30T09:57:20;20.70;59.30
41220;DHT22;26951;47.338;9.196;2023-07-30T10:00:06;20.60;60.50
41220;DHT22;26951;47.338;9.196;2023-07-30T10:02:53;20.60;61.00
41220;DHT22;26951;47.338;9.196;2023-07-30T10:05:39;20.50;58.60
41220;DHT22;26951;47.338;9.196;2023-07-30T10:08:26;20.40;59.10
41220;DHT22;26951;47.338;9.196;2023-07-30T10:11:13;20.30;58.00
41220;DHT22;26951;47.338;9.196;2023-07-30T10:13:57;20.20;58.50
41220;DHT22;26951;47.338;9.196;2023-07-30T10:16:53;20.10;57.40
41220;DHT22;26951;47.338;9.196;2023-07-30T10:19:38;20.00;57.70
41220;DHT22;26951;47.338;9.196;2023-07-30T10:22:23;19.90;59.00
41220;DHT22;26951;47.338;9.196;2023-07-30T10:25:12;19.80;57.10
41220;DHT22;26951;47.338;9.196;2023-07-30T10:27:58;19.70;57.30
41220;DHT22;26951;47.338;9.196;2023-07-30T10:30:55;19.50;59.30
41220;DHT22;26951;47.338;9.196;2023-07-30T10:33:49;19.40;60.30
41220;DHT22;26951;47.338;9.196;2023-07-30T10:36:41;19.30;62.50
41220;DHT22;26951;47.338;9.196;2023-07-30T10:39:28;19.30;64.10
41220;DHT22;26951;47.338;9.196;2023-07-30T10:42:12;19.40;61.30
41220;DHT22;26951;47.338;9.196;2023-07-30T10:44:58;19.40;64.50
41220;DHT22;26951;47.338;9.196;2023-07-30T10:47:42;19.60;63.10
41220;DHT22;26951;47.338;9.196;2023-07-30T10:50:26;19.60;63.30
41220;DHT22;26951;47.338;9.196;2023-07-30T10:53:10;19.60;62.90
41220;DHT22;26951;47.338;9.196;2023-07-30T10:55:58;19.70;62.10
41220;DHT22;26951;47.338;9.196;2023-07-30T10:58:49;19.80;62.90
41220;DHT22;26951;47.338;9.196;2023-07-30T11:04:23;20.00;61.60
41220;DHT22;26951;47.338;9.196;2023-07-30T11:07:08;20.00;63.30
41220;DHT22;26951;47.338;9.196;2023-07-30T11:09:59;20.10;61.50
41220;DHT22;26951;47.338;9.196;2023-07-30T11:12:47;20.10;60.20
41220;DHT22;26951;47.338;9.196;2023-07-30T11:15:33;20.20;59.80
41220;DHT22;26951;47.338;9.196;2023-07-30T11:18:24;20.20;59.90
41220;DHT22;26951;47.338;9.196;2023-07-30T11:21:10;20.20;60.30
41220;DHT22;26951;47.338;9.196;2023-07-30T11:23:54;20.20;59.80
41220;DHT22;26951;47.338;9.196;2023-07-30T11:26:39;20.10;59.30
41220;DHT22;26951;47.338;9.196;2023-07-30T11:29:23;20.10;59.60
41220;DHT22;26951;47.338;9.196;2023-07-30T11:32:07;20.20;60.30
41220;DHT22;26951;47.338;9.196;2023-07-30T11:34:54;20.30;62.80
41220;DHT22;26951;47.338;9.196;2023-07-30T11:37:40;20.40;62.10
41220;DHT22;26951;47.338;9.196;2023-07-30T11:40:26;20.50;61.90
41220;DHT22;26951;47.338;9.196;2023-07-30T11:43:11;20.50;58.70
41220;DHT22;26951;47.338;9.196;2023-07-30T11:46:08;20.50;58.30
41220;DHT22;26951;47.338;9.196;2023-07-30T11:48:54;20.60;59.90
41220;DHT22;26951;47.338;9.196;2023-07-30T11:52:07;20.60;59.00
41220;DHT22;26951;47.338;9.196;2023-07-30T11:55:02;20.60;58.20
41220;DHT22;26951;47.338;9.196;2023-07-30T11:57:47;20.70;60.00
41220;DHT22;26951;47.338;9.196;2023-07-30T12:00:32;20.70;59.70
41220;DHT22;26951;47.338;9.196;2023-07-30T12:03:17;20.80;56.80
41220;DHT22;26951;47.338;9.196;2023-07-30T12:06:05;20.80;62.60
41220;DHT22;26951;47.338;9.196;2023-07-30T12:08:50;21.00;62.40
41220;DHT22;26951;47.338;9.196;2023-07-30T12:11:34;21.20;64.20
41220;DHT22;26951;47.338;9.196;2023-07-30T12:15:09;21.50;60.20
41220;DHT22;26951;47.338;9.196;2023-07-30T12:17:53;21.80;55.90
41220;DHT22;26951;47.338;9.196;2023-07-30T12:20:37;21.90;51.20
41220;DHT22;26951;47.338;9.196;2023-07-30T12:23:21;21.90;52.90
41220;DHT22;26951;47.338;9.196;2023-07-30T12:26:06;22.00;56.20
41220;DHT22;26951;47.338;9.196;2023-07-30T12:28:50;22.20;51.90
41220;DHT22;26951;47.338;9.196;2023-07-30T12:31:34;22.20;54.10
41220;DHT22;26951;47.338;9.196;2023-07-30T12:34:19;22.40;51.10
41220;DHT22;26951;47.338;9.196;2023-07-30T12:37:03;22.60;47.70
41220;DHT22;26951;47.338;9.196;2023-07-30T12:39:48;22.70;50.30
41220;DHT22;26951;47.338;9.196;2023-07-30T12:42:32;22.90;49.40
41220;DHT22;26951;47.338;9.196;2023-07-30T12:45:16;23.00;49.20
41220;DHT22;26951;47.338;9.196;2023-07-30T12:48:01;23.10;48.00
41220;DHT22;26951;47.338;9.196;2023-07-30T12:50:45;23.00;44.50
41220;DHT22;26951;47.338;9.196;2023-07-30T12:53:29;23.00;45.30
41220;DHT22;26951;47.338;9.196;2023-07-30T12:56:14;22.70;45.90
41220;DHT22;26951;47.338;9.196;2023-07-30T12:58:59;22.50;47.80
41220;DHT22;26951;47.338;9.196;2023-07-30T13:01:43;22.40;48.40
41220;DHT22;26951;47.338;9.196;2023-07-30T13:04:27;22.30;47.90
41220;DHT22;26951;47.338;9.196;2023-07-30T13:07:11;22.30;45.90
41220;DHT22;26951;47.338;9.196;2023-07-30T13:10:22;22.40;46.60
41220;DHT22;26951;47.338;9.196;2023-07-30T13:13:06;22.50;46.70
41220;DHT22;26951;47.338;9.196;2023-07-30T13:15:50;22.50;46.10
41220;DHT22;26951;47.338;9.196;2023-07-30T13:18:34;22.60;49.10
41220;DHT22;26951;47.338;9.196;2023-07-30T13:21:19;22.70;48.20
41220;DHT22;26951;47.338;9.196;2023-07-30T13:24:03;22.90;46.50
41220;DHT22;26951;47.338;9.196;2023-07-30T13:26:47;23.00;46.30
41220;DHT22;26951;47.338;9.196;2023-07-30T13:29:31;23.10;47.00
41220;DHT22;26951;47.338;9.196;2023-07-30T13:32:15;23.10;47.60
41220;DHT22;26951;47.338;9.196;2023-07-30T13:34:59;23.10;48.00
41220;DHT22;26951;47.338;9.196;2023-07-30T13:37:47;23.10;46.40
41220;DHT22;26951;47.338;9.196;2023-07-30T13:40:31;23.20;48.30
41220;DHT22;26951;47.338;9.196;2023-07-30T13:43:14;23.20;47.10
41220;DHT22;26951;47.338;9.196;2023-07-30T13:45:59;23.20;44.60
41220;DHT22;26951;47.338;9.196;2023-07-30T13:48:43;23.10;43.70
41220;DHT22;26951;47.338;9.196;2023-07-30T13:51:27;23.10;44.60
41220;DHT22;26951;47.338;9.196;2023-07-30T13:54:15;23.00;44.60
41220;DHT22;26951;47.338;9.196;2023-07-30T13:57:02;22.90;43.50
41220;DHT22;26951;47.338;9.196;2023-07-30T13:59:47;22.80;44.10
41220;DHT22;26951;47.338;9.196;2023-07-30T14:02:31;22.80;44.00
41220;DHT22;26951;47.338;9.196;2023-07-30T14:05:15;22.60;44.80
41220;DHT22;26951;47.338;9.196;2023-07-30T14:08:00;22.60;44.70
41220;DHT22;26951;47.338;9.196;2023-07-30T14:10:44;22.40;45.00
41220;DHT22;26951;47.338;9.196;2023-07-30T14:13:28;22.40;46.20
41220;DHT22;26951;47.338;9.196;2023-07-30T14:16:12;22.40;45.90
41220;DHT22;26951;47.338;9.196;2023-07-30T14:18:57;22.40;42.80
41220;DHT22;26951;47.338;9.196;2023-07-30T14:21:41;22.40;41.10
41220;DHT22;26951;47.338;9.196;2023-07-30T14:24:26;22.40;44.30
41220;DHT22;26951;47.338;9.196;2023-07-30T14:27:11;22.60;43.80
41220;DHT22;26951;47.338;9.196;2023-07-30T14:29:55;22.80;42.00
41220;DHT22;26951;47.338;9.196;2023-07-30T14:32:39;23.00;41.00
41220;DHT22;26951;47.338;9.196;2023-07-30T14:35:23;23.00;38.10
41220;DHT22;26951;47.338;9.196;2023-07-30T14:38:07;23.00;37.50
41220;DHT22;26951;47.338;9.196;2023-07-30T14:40:51;22.80;37.40
41220;DHT22;26951;47.338;9.196;2023-07-30T14:43:36;22.60;38.60
41220;DHT22;26951;47.338;9.196;2023-07-30T14:46:20;22.60;39.00
41220;DHT22;26951;47.338;9.196;2023-07-30T14:49:05;22.60;39.00
41220;DHT22;26951;47.338;9.196;2023-07-30T14:51:49;22.60;39.00
41220;DHT22;26951;47.338;9.196;2023-07-30T14:54:35;22.60;39.20
41220;DHT22;26951;47.338;9.196;2023-07-30T14:57:19;22.50;39.90
41220;DHT22;26951;47.338;9.196;2023-07-30T15:00:05;22.40;40.40
41220;DHT22;26951;47.338;9.196;2023-07-30T15:02:49;22.30;39.70
41220;DHT22;26951;47.338;9.196;2023-07-30T15:05:34;22.30;39.20
41220;DHT22;26951;47.338;9.196;2023-07-30T15:08:18;22.30;42.40
41220;DHT22;26951;47.338;9.196;2023-07-30T15:11:03;22.50;41.70
41220;DHT22;26951;47.338;9.196;2023-07-30T15:13:47;22.60;40.70
41220;DHT22;26951;47.338;9.196;2023-07-30T15:16:31;22.70;39.90
41220;DHT22;26951;47.338;9.196;2023-07-30T15:19:15;22.70;39.80
41220;DHT22;26951;47.338;9.196;2023-07-30T15:21:59;22.70;40.30
41220;DHT22;26951;47.338;9.196;2023-07-30T15:24:44;22.60;41.40
41220;DHT22;26951;47.338;9.196;2023-07-30T15:27:28;22.60;41.10
41220;DHT22;26951;47.338;9.196;2023-07-30T15:30:12;22.60;41.40
41220;DHT22;26951;47.338;9.196;2023-07-30T15:32:57;22.50;41.20
41220;DHT22;26951;47.338;9.196;2023-07-30T15:35:42;22.50;41.70
41220;DHT22;26951;47.338;9.196;2023-07-30T15:38:26;22.60;44.00
41220;DHT22;26951;47.338;9.196;2023-07-30T15:41:11;22.60;41.30
41220;DHT22;26951;47.338;9.196;2023-07-30T15:43:55;22.70;41.70
41220;DHT22;26951;47.338;9.196;2023-07-30T15:46:39;22.80;42.30
41220;DHT22;26951;47.338;9.196;2023-07-30T15:49:23;22.90;40.80
41220;DHT22;26951;47.338;9.196;2023-07-30T15:52:07;22.90;40.10
41220;DHT22;26951;47.338;9.196;2023-07-30T15:54:51;22.90;38.90
41220;DHT22;26951;47.338;9.196;2023-07-30T15:57:36;22.90;39.90
41220;DHT22;26951;47.338;9.196;2023-07-30T16:00:20;23.00;39.90
41220;DHT22;26951;47.338;9.196;2023-07-30T16:03:05;23.00;39.00
41220;DHT22;26951;47.338;9.196;2023-07-30T16:05:50;23.00;38.90
41220;DHT22;26951;47.338;9.196;2023-07-30T16:08:35;22.90;38.00
41220;DHT22;26951;47.338;9.196;2023-07-30T16:11:20;22.80;38.50
41220;DHT22;26951;47.338;9.196;2023-07-30T16:14:04;22.80;37.90
41220;DHT22;26951;47.338;9.196;2023-07-30T16:16:49;22.70;37.80
41220;DHT22;26951;47.338;9.196;2023-07-30T16:19:33;22.60;37.30
41220;DHT22;26951;47.338;9.196;2023-07-30T16:22:17;22.50;36.20
41220;DHT22;26951;47.338;9.196;2023-07-30T16:25:02;22.50;36.00
41220;DHT22;26951;47.338;9.196;2023-07-30T16:27:46;22.50;34.70
41220;DHT22;26951;47.338;9.196;2023-07-30T16:30:30;22.30;36.20
41220;DHT22;26951;47.338;9.196;2023-07-30T16:33:14;22.30;36.70
41220;DHT22;26951;47.338;9.196;2023-07-30T16:35:58;22.30;37.20
41220;DHT22;26951;47.338;9.196;2023-07-30T16:38:46;22.30;37.70
41220;DHT22;26951;47.338;9.196;2023-07-30T16:41:31;22.30;37.30
41220;DHT22;26951;47.338;9.196;2023-07-30T16:44:15;22.40;35.90
41220;DHT22;26951;47.338;9.196;2023-07-30T16:46:59;22.40;34.30
41220;DHT22;26951;47.338;9.196;2023-07-30T16:49:43;22.40;34.60
41220;DHT22;26951;47.338;9.196;2023-07-30T16:52:27;22.30;36.40
41220;DHT22;26951;47.338;9.196;2023-07-30T16:55:11;22.20;36.10
41220;DHT22;26951;47.338;9.196;2023-07-30T16:57:55;22.10;35.80
41220;DHT22;26951;47.338;9.196;2023-07-30T17:00:40;22.10;36.30
41220;DHT22;26951;47.338;9.196;2023-07-30T17:03:24;22.10;35.70
41220;DHT22;26951;47.338;9.196;2023-07-30T17:06:08;22.10;36.30
41220;DHT22;26951;47.338;9.196;2023-07-30T17:08:52;22.10;36.30
41220;DHT22;26951;47.338;9.196;2023-07-30T17:11:36;22.10;37.40
41220;DHT22;26951;47.338;9.196;2023-07-30T17:14:21;22.10;37.20
41220;DHT22;26951;47.338;9.196;2023-07-30T17:17:05;22.00;34.50
41220;DHT22;26951;47.338;9.196;2023-07-30T17:19:51;22.00;34.80
41220;DHT22;26951;47.338;9.196;2023-07-30T17:22:36;21.90;34.90
41220;DHT22;26951;47.338;9.196;2023-07-30T17:25:19;21.80;34.80